createdAt,value
2022-09-22T00:01:20.624Z,11.56
2022-09-22T00:04:23.242Z,11.53
2022-09-22T00:07:25.945Z,11.52
2022-09-22T00:10:29.068Z,11.34
2022-09-22T00:13:33.728Z,11.17
2022-09-22T00:16:39.858Z,11.18
2022-09-22T00:19:42.581Z,11.17
2022-09-22T00:22:45.239Z,11.03
2022-09-22T00:25:48.299Z,11.01
2022-09-22T00:28:53.257Z,11.07
2022-09-22T00:31:56.708Z,11.18
2022-09-22T00:34:59.306Z,11.26
2022-09-22T00:38:01.986Z,11.31
2022-09-22T00:41:05.789Z,11.22
2022-09-22T00:44:39.498Z,11.09
2022-09-22T00:47:45.608Z,10.92
2022-09-22T00:50:49.614Z,10.81
2022-09-22T00:53:54.063Z,10.71
2022-09-22T00:57:05.306Z,10.75
2022-09-22T01:00:12.315Z,10.70
2022-09-22T01:03:19.140Z,10.76
2022-09-22T01:06:26.853Z,10.74
2022-09-22T01:09:33.108Z,10.70
2022-09-22T01:12:37.921Z,10.64
2022-09-22T01:15:50.178Z,10.57
2022-09-22T01:19:09.154Z,10.44
2022-09-22T01:22:29.276Z,10.38
2022-09-22T01:25:59.978Z,10.50
2022-09-22T01:29:24.127Z,10.62
2022-09-22T01:32:31.429Z,10.60
2022-09-22T01:35:43.654Z,10.54
2022-09-22T01:38:55.360Z,10.58
2022-09-22T01:42:02.615Z,10.54
2022-09-22T01:45:09.807Z,10.56
2022-09-22T01:48:19.068Z,10.54
2022-09-22T01:51:27.182Z,10.47
2022-09-22T01:54:34.234Z,10.44
2022-09-22T01:57:44.570Z,10.44
2022-09-22T02:00:53.522Z,10.36
2022-09-22T02:04:03.693Z,10.39
2022-09-22T02:07:09.841Z,10.42
2022-09-22T02:10:17.017Z,10.39
2022-09-22T02:13:20.119Z,10.43
2022-09-22T02:16:24.818Z,10.39
2022-09-22T02:19:34.131Z,10.33
2022-09-22T02:22:36.748Z,10.19
2022-09-22T02:25:41.713Z,10.03
2022-09-22T02:28:45.640Z,9.85
2022-09-22T02:31:50.412Z,9.89
2022-09-22T02:34:55.344Z,9.99
2022-09-22T02:38:05.871Z,9.99
2022-09-22T02:41:15.103Z,9.96
2022-09-22T02:44:22.600Z,9.99
2022-09-22T02:47:30.159Z,9.97
2022-09-22T02:50:35.549Z,9.94
2022-09-22T02:53:38.107Z,9.88
2022-09-22T02:56:40.829Z,9.90
2022-09-22T02:59:43.394Z,9.95
2022-09-22T03:02:46.104Z,9.90
2022-09-22T03:05:50.023Z,9.87
2022-09-22T03:08:53.661Z,9.75
2022-09-22T03:11:56.269Z,9.64
2022-09-22T03:14:58.971Z,9.50
2022-09-22T03:18:01.548Z,9.37
2022-09-22T03:21:05.985Z,9.41
2022-09-22T03:24:08.899Z,9.44
2022-09-22T03:27:11.583Z,9.45
2022-09-22T03:30:14.632Z,9.45
2022-09-22T03:33:17.279Z,9.42
2022-09-22T03:36:21.681Z,9.48
2022-09-22T03:39:24.258Z,9.56
2022-09-22T03:42:27.014Z,9.64
2022-09-22T03:45:29.590Z,9.55
2022-09-22T03:48:32.818Z,9.60
2022-09-22T03:51:39.380Z,9.69
2022-09-22T03:54:41.989Z,9.64
2022-09-22T03:57:44.716Z,9.44
2022-09-22T04:00:49.389Z,9.32
2022-09-22T04:03:52.105Z,9.25
2022-09-22T04:06:56.096Z,9.24
2022-09-22T04:09:58.920Z,9.33
2022-09-22T04:13:01.519Z,9.31
2022-09-22T04:16:04.184Z,9.22
2022-09-22T04:19:06.778Z,9.18
2022-09-22T04:22:10.698Z,9.04
2022-09-22T04:25:13.303Z,9.08
2022-09-22T04:28:15.862Z,9.07
2022-09-22T04:31:19.786Z,8.89
2022-09-22T04:34:22.452Z,8.83
2022-09-22T04:37:26.699Z,8.71
2022-09-22T04:40:30.197Z,8.61
2022-09-22T04:43:32.870Z,8.50
2022-09-22T04:46:35.640Z,8.60
2022-09-22T04:49:38.205Z,8.46
2022-09-22T04:52:46.463Z,8.42
2022-09-22T04:55:50.521Z,8.32
2022-09-22T04:58:53.196Z,8.32
2022-09-22T05:01:55.786Z,8.31
2022-09-22T05:04:58.492Z,8.48
2022-09-22T05:08:02.824Z,8.62
2022-09-22T05:11:08.242Z,8.37
2022-09-22T05:14:10.913Z,8.05
2022-09-22T05:17:14.031Z,7.79
2022-09-22T05:20:17.667Z,7.59
2022-09-22T05:23:21.569Z,7.33
2022-09-22T05:26:24.806Z,7.28
2022-09-22T05:29:28.243Z,7.22
2022-09-22T05:32:30.842Z,7.23
2022-09-22T05:35:36.820Z,7.21
2022-09-22T05:38:41.146Z,7.25
2022-09-22T05:41:43.727Z,7.25
2022-09-22T05:44:46.514Z,7.29
2022-09-22T05:47:49.450Z,7.27
2022-09-22T05:50:52.048Z,7.28
2022-09-22T05:53:56.490Z,7.40
2022-09-22T05:56:59.166Z,7.68
2022-09-22T06:00:02.423Z,8.26
2022-09-22T06:03:05.269Z,8.86
2022-09-22T06:06:07.964Z,9.34
2022-09-22T06:09:11.916Z,9.83
2022-09-22T06:12:14.499Z,10.31
2022-09-22T06:15:17.372Z,10.79
2022-09-22T06:18:24.421Z,11.18
2022-09-22T06:21:27.573Z,11.61
2022-09-22T06:24:31.546Z,11.97
2022-09-22T06:27:34.114Z,12.33
2022-09-22T06:30:40.221Z,12.66
2022-09-22T06:33:47.114Z,13.15
2022-09-22T06:36:50.082Z,13.45
2022-09-22T06:39:56.182Z,13.77
2022-09-22T06:42:59.711Z,14.03
2022-09-22T06:46:02.859Z,14.38
2022-09-22T06:49:05.835Z,14.85
2022-09-22T06:52:11.362Z,15.33
2022-09-22T06:55:19.342Z,15.59
2022-09-22T06:58:22.877Z,15.90
2022-09-22T07:01:27.505Z,16.19
2022-09-22T07:04:30.140Z,15.70
2022-09-22T07:07:35.315Z,16.15
2022-09-22T07:10:39.230Z,16.41
2022-09-22T07:13:43.818Z,16.74
2022-09-22T07:16:46.671Z,16.68
2022-09-22T07:19:51.392Z,16.95
2022-09-22T07:23:00.854Z,17.04
2022-09-22T07:26:05.921Z,17.38
2022-09-22T07:29:13.215Z,17.89
2022-09-22T07:32:15.989Z,18.15
2022-09-22T07:35:18.762Z,18.25
2022-09-22T07:38:21.552Z,18.32
2022-09-22T07:41:28.340Z,18.56
2022-09-22T07:44:48.641Z,18.65
2022-09-22T07:48:08.981Z,18.79
2022-09-22T07:51:18.336Z,18.73
2022-09-22T07:54:20.930Z,18.65
2022-09-22T07:57:25.040Z,18.78
2022-09-22T08:00:32.949Z,19.06
2022-09-22T08:03:36.197Z,19.04
2022-09-22T08:06:39.275Z,19.17
2022-09-22T08:09:41.901Z,19.12
2022-09-22T08:12:46.395Z,19.16
2022-09-22T08:15:56.086Z,19.07
2022-09-22T08:19:00.291Z,18.98
2022-09-22T08:22:03.533Z,18.02
2022-09-22T08:25:07.378Z,18.18
2022-09-22T08:28:12.472Z,18.34
2022-09-22T08:31:17.871Z,18.38
2022-09-22T08:34:22.566Z,18.07
2022-09-22T08:37:28.298Z,17.97
2022-09-22T08:40:31.455Z,17.94
2022-09-22T08:43:35.943Z,17.78
2022-09-22T08:46:44.107Z,17.71
2022-09-22T08:50:08.434Z,17.51
2022-09-22T08:53:16.055Z,17.22
2022-09-22T08:56:30.712Z,17.19
2022-09-22T08:59:39.677Z,17.10
2022-09-22T09:02:45.729Z,17.03
2022-09-22T09:06:00.428Z,17.11
2022-09-22T09:09:28.563Z,17.02
2022-09-22T09:12:44.402Z,17.28
2022-09-22T09:16:03.115Z,17.44
2022-09-22T09:19:12.690Z,17.35
2022-09-22T09:22:24.882Z,17.71
2022-09-22T09:25:35.999Z,17.62
2022-09-22T09:28:42.907Z,17.81
2022-09-22T09:31:52.515Z,18.24
2022-09-22T09:34:55.926Z,18.79
2022-09-22T09:38:01.342Z,19.27
2022-09-22T09:41:14.549Z,19.46
2022-09-22T09:44:21.169Z,19.09
2022-09-22T09:47:44.019Z,19.48
2022-09-22T09:50:46.755Z,20.10
2022-09-22T09:53:52.047Z,20.49
2022-09-22T09:57:10.291Z,21.15
2022-09-22T10:00:34.592Z,21.29
2022-09-22T10:03:46.850Z,21.09
2022-09-22T10:06:50.209Z,21.56
2022-09-22T10:09:54.726Z,21.90
2022-09-22T10:13:20.995Z,21.80
2022-09-22T10:16:24.657Z,21.67
2022-09-22T10:19:34.551Z,21.43
2022-09-22T10:22:39.745Z,21.90
2022-09-22T10:25:43.092Z,22.24
2022-09-22T10:28:51.014Z,22.29
2022-09-22T10:32:05.711Z,22.40
2022-09-22T10:35:28.019Z,21.88
2022-09-22T10:38:34.946Z,21.83
2022-09-22T10:41:39.346Z,21.53
2022-09-22T10:44:48.188Z,21.05
2022-09-22T10:47:57.998Z,20.64
2022-09-22T10:51:10.619Z,21.53
2022-09-22T10:54:35.987Z,21.60
2022-09-22T10:58:02.088Z,22.19
2022-09-22T11:01:22.194Z,22.29
2022-09-22T11:04:42.859Z,22.24
2022-09-22T11:08:19.665Z,22.26
2022-09-22T11:11:45.751Z,22.73
2022-09-22T11:15:18.371Z,22.79
2022-09-22T11:18:43.075Z,22.63
2022-09-22T11:21:57.304Z,21.97
2022-09-22T11:25:15.654Z,22.83
2022-09-22T11:28:34.851Z,23.32
2022-09-22T11:31:48.684Z,23.52
2022-09-22T11:35:15.305Z,23.55
2022-09-22T11:38:45.731Z,23.34
2022-09-22T11:42:02.570Z,23.31
2022-09-22T11:45:16.903Z,23.42
2022-09-22T11:48:35.617Z,23.32
2022-09-22T11:51:57.640Z,23.32
2022-09-22T11:55:15.939Z,23.37
2022-09-22T11:58:28.993Z,23.19
2022-09-22T12:01:38.050Z,23.14
2022-09-22T12:04:45.669Z,23.02
2022-09-22T12:07:55.667Z,22.85
2022-09-22T12:10:59.129Z,23.04
2022-09-22T12:14:23.467Z,22.77
2022-09-22T12:17:42.179Z,22.70
2022-09-22T12:20:55.307Z,22.75
2022-09-22T12:24:01.934Z,22.50
2022-09-22T12:27:12.270Z,22.50
2022-09-22T12:30:22.715Z,22.30
2022-09-22T12:33:27.318Z,22.58
2022-09-22T12:36:32.797Z,22.45
2022-09-22T12:39:41.873Z,22.52
2022-09-22T12:42:49.488Z,22.54
2022-09-22T12:45:55.959Z,22.21
2022-09-22T12:48:58.836Z,21.79
2022-09-22T12:52:01.640Z,21.42
2022-09-22T12:55:17.811Z,21.44
2022-09-22T12:58:40.343Z,21.64
2022-09-22T13:01:46.222Z,21.60
2022-09-22T13:05:23.736Z,21.70
2022-09-22T13:08:47.087Z,21.59
2022-09-22T13:12:25.468Z,21.18
2022-09-22T13:15:28.986Z,21.06
2022-09-22T13:18:38.174Z,20.87
2022-09-22T13:21:42.067Z,20.94
2022-09-22T13:24:44.969Z,20.75
2022-09-22T13:27:47.752Z,20.83
2022-09-22T13:31:03.438Z,20.49
2022-09-22T13:34:29.362Z,20.68
2022-09-22T13:37:32.353Z,20.51
2022-09-22T13:40:35.540Z,20.24
2022-09-22T13:43:40.668Z,20.19
2022-09-22T13:46:46.399Z,20.28
2022-09-22T13:49:54.053Z,20.03
2022-09-22T13:52:57.314Z,19.86
2022-09-22T13:56:01.175Z,19.67
2022-09-22T13:59:04.777Z,19.44
2022-09-22T14:02:10.822Z,19.15
2022-09-22T14:05:21.683Z,18.86
2022-09-22T14:08:28.939Z,18.64
2022-09-22T14:11:33.246Z,18.43
2022-09-22T14:14:35.972Z,18.31
2022-09-22T14:17:41.815Z,18.30
2022-09-22T14:20:46.580Z,18.24
2022-09-22T14:23:52.549Z,18.17
2022-09-22T14:27:03.795Z,18.11
2022-09-22T14:30:15.790Z,18.00
2022-09-22T14:33:23.330Z,17.92
2022-09-22T14:36:27.522Z,17.81
2022-09-22T14:39:34.166Z,17.72
2022-09-22T14:42:37.159Z,17.62
2022-09-22T14:45:57.635Z,17.55
2022-09-22T14:49:04.395Z,17.50
2022-09-22T14:52:16.120Z,17.43
2022-09-22T14:55:29.792Z,17.29
2022-09-22T14:58:40.261Z,17.18
2022-09-22T15:02:06.819Z,17.12
2022-09-22T15:05:11.771Z,16.98
2022-09-22T15:08:18.876Z,16.84
2022-09-22T15:11:21.486Z,16.70
2022-09-22T15:14:41.278Z,16.63
2022-09-22T15:18:02.734Z,16.52
2022-09-22T15:21:11.925Z,16.46
2022-09-22T15:24:21.121Z,16.41
2022-09-22T15:27:23.892Z,16.36
2022-09-22T15:30:26.957Z,16.30
2022-09-22T15:33:29.655Z,16.18
2022-09-22T15:36:33.839Z,16.09
2022-09-22T15:39:37.770Z,16.04
2022-09-22T15:43:02.286Z,15.91
2022-09-22T15:46:08.806Z,15.81
2022-09-22T15:49:15.121Z,15.70
2022-09-22T15:52:17.732Z,15.62
2022-09-22T15:55:24.167Z,15.56
2022-09-22T15:58:31.676Z,15.47
2022-09-22T16:01:34.540Z,15.39
2022-09-22T16:04:37.592Z,15.31
2022-09-22T16:07:42.170Z,15.25
2022-09-22T16:10:46.505Z,15.23
2022-09-22T16:13:49.154Z,15.16
2022-09-22T16:16:52.259Z,15.11
2022-09-22T16:19:55.035Z,15.05
2022-09-22T16:23:00.297Z,15.00
2022-09-22T16:26:06.691Z,14.94
2022-09-22T16:29:09.886Z,14.85
2022-09-22T16:32:12.585Z,14.75
2022-09-22T16:35:15.411Z,14.62
2022-09-22T16:38:18.021Z,14.54
2022-09-22T16:41:24.694Z,14.44
2022-09-22T16:44:27.325Z,14.33
2022-09-22T16:47:30.019Z,14.24
2022-09-22T16:50:32.736Z,14.14
2022-09-22T16:53:35.583Z,13.98
2022-09-22T16:56:39.972Z,13.86
2022-09-22T16:59:43.031Z,13.76
2022-09-22T17:02:46.889Z,13.62
2022-09-22T17:05:49.465Z,13.46
2022-09-22T17:08:52.920Z,13.40
2022-09-22T17:11:57.984Z,13.34
2022-09-22T17:15:00.714Z,13.19
2022-09-22T17:18:04.296Z,13.10
2022-09-22T17:21:08.912Z,13.01
2022-09-22T17:24:11.485Z,12.91
2022-09-22T17:27:15.466Z,12.81
2022-09-22T17:30:18.253Z,12.66
2022-09-22T17:33:21.547Z,12.52
2022-09-22T17:36:26.140Z,12.39
2022-09-22T17:39:30.578Z,12.28
2022-09-22T17:42:37.659Z,12.23
2022-09-22T17:45:40.299Z,12.22
2022-09-22T17:49:00.807Z,12.16
2022-09-22T17:52:21.465Z,12.07
2022-09-22T17:55:25.445Z,12.01
2022-09-22T17:58:29.418Z,11.97
2022-09-22T18:01:32.179Z,11.91
2022-09-22T18:04:34.834Z,11.82
2022-09-22T18:07:40.357Z,11.71
2022-09-22T18:10:46.406Z,11.55
2022-09-22T18:13:50.544Z,11.45
2022-09-22T18:16:53.888Z,11.42
2022-09-22T18:19:57.501Z,11.36
2022-09-22T18:23:00.450Z,11.36
2022-09-22T18:26:03.737Z,11.23
2022-09-22T18:29:10.053Z,11.15
2022-09-22T18:32:12.608Z,11.03
2022-09-22T18:35:16.035Z,11.01
2022-09-22T18:38:19.892Z,10.91
2022-09-22T18:41:23.148Z,10.88
2022-09-22T18:44:28.255Z,10.86
2022-09-22T18:47:30.905Z,10.75
2022-09-22T18:50:34.778Z,10.60
2022-09-22T18:53:37.815Z,10.60
2022-09-22T18:56:42.214Z,10.54
2022-09-22T18:59:46.185Z,10.47
2022-09-22T19:02:49.235Z,10.40
2022-09-22T19:05:52.034Z,10.34
2022-09-22T19:08:55.616Z,10.32
2022-09-22T19:11:58.729Z,10.29
2022-09-22T19:15:05.644Z,10.25
2022-09-22T19:18:09.917Z,10.18
2022-09-22T19:21:15.508Z,10.11
2022-09-22T19:24:18.204Z,10.05
2022-09-22T19:27:22.737Z,10.00
2022-09-22T19:30:30.890Z,10.00
2022-09-22T19:33:34.332Z,9.94
2022-09-22T19:36:37.247Z,9.93
2022-09-22T19:39:39.980Z,9.88
2022-09-22T19:42:42.674Z,9.76
2022-09-22T19:45:47.063Z,9.76
2022-09-22T19:48:49.700Z,9.78
2022-09-22T19:51:53.067Z,9.77
2022-09-22T19:54:55.662Z,9.63
2022-09-22T19:57:58.335Z,9.52
2022-09-22T20:01:02.317Z,9.44
2022-09-22T20:04:06.486Z,9.38
2022-09-22T20:07:11.054Z,9.42
2022-09-22T20:10:14.414Z,9.33
2022-09-22T20:13:30.992Z,9.33
2022-09-22T20:16:35.101Z,9.32
2022-09-22T20:19:39.296Z,9.31
2022-09-22T20:22:42.331Z,9.27
2022-09-22T20:25:45.050Z,9.27
2022-09-22T20:28:47.908Z,9.26
2022-09-22T20:31:52.227Z,9.25
2022-09-22T20:34:56.339Z,9.14
2022-09-22T20:37:59.510Z,9.15
2022-09-22T20:41:02.899Z,9.11
2022-09-22T20:44:05.713Z,9.08
2022-09-22T20:47:14.868Z,9.01
2022-09-22T20:50:18.005Z,8.92
2022-09-22T20:53:20.882Z,8.84
2022-09-22T20:56:23.616Z,8.83
2022-09-22T20:59:26.484Z,8.82
2022-09-22T21:02:30.926Z,8.82
2022-09-22T21:05:34.276Z,8.79
2022-09-22T21:08:56.928Z,8.74
2022-09-22T21:11:59.782Z,8.71
2022-09-22T21:15:02.777Z,8.71
2022-09-22T21:18:06.892Z,8.66
2022-09-22T21:21:10.246Z,8.67
2022-09-22T21:24:12.964Z,8.71
2022-09-22T21:27:16.264Z,8.66
2022-09-22T21:30:19.142Z,8.58
2022-09-22T21:33:23.441Z,8.57
2022-09-22T21:36:26.570Z,8.55
2022-09-22T21:39:29.411Z,8.47
2022-09-22T21:42:32.382Z,8.47
2022-09-22T21:45:35.219Z,8.51
2022-09-22T21:48:39.587Z,8.48
2022-09-22T21:55:07.636Z,8.39
2022-09-22T21:58:10.551Z,8.35
2022-09-22T22:01:14.835Z,8.31
2022-09-22T22:04:19.115Z,8.35
2022-09-22T22:07:23.447Z,8.35
2022-09-22T22:10:26.183Z,8.35
2022-09-22T22:13:28.731Z,8.25
2022-09-22T22:16:35.418Z,8.22
2022-09-22T22:19:39.334Z,8.15
2022-09-22T22:22:42.066Z,8.15
2022-09-22T22:25:44.745Z,8.17
2022-09-22T22:28:48.345Z,8.13
2022-09-22T22:31:52.196Z,8.09
2022-09-22T22:34:56.145Z,8.10
2022-09-22T22:37:58.820Z,8.14
2022-09-22T22:41:03.369Z,8.11
2022-09-22T22:44:07.284Z,8.03
2022-09-22T22:47:09.901Z,8.04
2022-09-22T22:50:13.915Z,8.03
2022-09-22T22:53:16.735Z,7.88
2022-09-22T22:56:22.405Z,7.88
2022-09-22T22:59:24.941Z,7.84
2022-09-22T23:02:30.773Z,7.83
2022-09-22T23:05:37.410Z,7.78
2022-09-22T23:08:44.134Z,7.80
2022-09-22T23:11:47.540Z,7.83
2022-09-22T23:14:50.579Z,7.85
2022-09-22T23:17:53.131Z,7.85
2022-09-22T23:20:57.157Z,7.74
2022-09-22T23:24:00.948Z,7.73
2022-09-22T23:27:03.614Z,7.73
2022-09-22T23:30:07.019Z,7.73
2022-09-22T23:33:11.240Z,7.73
2022-09-22T23:36:17.964Z,7.74
2022-09-22T23:39:20.657Z,7.76
2022-09-22T23:42:24.243Z,7.73
2022-09-22T23:45:29.565Z,7.68
2022-09-22T23:48:32.964Z,7.61
2022-09-22T23:51:37.036Z,7.59
2022-09-22T23:54:39.612Z,7.57
2022-09-22T23:57:42.347Z,7.53
